M I D A S
Marine Information and Data Acquisition System
Tripno 1551 of the Zeeleeuw from 2008-04-17 07:09:46 to 2008-04-17 12:08:12
Back to CruiseResearch ActivitiesStationsMapUnderway DataData graphs

EquipmentUnitsComments
TimeDGPSUTC
LatitudeDGPSDM.mWGS84
LongitudeDGPSDM.mWGS84
SpeedMeteo Stationm/sRelative wind speed
DirectionMeteo StationdegRelative wind direction
TemperatureMeteo Stationdeg CelciusAir temperature
PressureMeteo StationPaAtmospheric pressure
HumidityMeteo Station%Relative humidity
Missing or incorrect values are displayed as -999
Metereological data collected by the RV Zeeleeuw from 2008-04-17 07:09:16 to 2008-04-17 12:17:56
Time Latitude Longitude Speed Direction Temperature Pressure Humidity
2008-04-17 07:10 51°13.667 2°55.947 -999 -999 -999 -999 -999
2008-04-17 07:11 51°13.686 2°55.855 -999 -999 -999 -999 -999
2008-04-17 07:12 51°13.7 2°55.774 -999 -999 -999 -999 -999
2008-04-17 07:13 51°13.691 2°55.748 -999 -999 -999 -999 -999
2008-04-17 07:14 51°13.717 2°55.73 -999 -999 -999 -999 -999
2008-04-17 07:15 51°13.776 2°55.678 -999 -999 -999 -999 -999
2008-04-17 07:16 51°13.852 2°55.618 -999 -999 -999 -999 -999
2008-04-17 07:17 51°13.936 2°55.554 -999 -999 -999 -999 -999
2008-04-17 07:18 51°14.011 2°55.5 -999 -999 -999 -999 -999
2008-04-17 07:19 51°14.083 2°55.442 -999 -999 -999 -999 -999
2008-04-17 07:20 51°14.17 2°55.368 -999 -999 -999 -999 -999
2008-04-17 07:21 51°14.273 2°55.23 -999 -999 -999 -999 -999
2008-04-17 07:22 51°14.361 2°55.052 -999 -999 -999 -999 -999
2008-04-17 07:23 51°14.463 2°54.869 -999 -999 -999 -999 -999
2008-04-17 07:24 51°14.591 2°54.712 -999 -999 -999 -999 -999
2008-04-17 07:25 51°14.721 2°54.551 -999 -999 -999 -999 -999
2008-04-17 07:26 51°14.852 2°54.392 -999 -999 -999 -999 -999
2008-04-17 07:27 51°14.979 2°54.231 -999 -999 -999 -999 -999
2008-04-17 07:28 51°15.116 2°54.102 -999 -999 -999 -999 -999
2008-04-17 07:29 51°15.259 2°53.996 -999 -999 -999 -999 -999
2008-04-17 07:30 51°15.397 2°53.871 -999 -999 -999 -999 -999
2008-04-17 07:31 51°15.539 2°53.739 -999 -999 -999 -999 -999
2008-04-17 07:32 51°15.675 2°53.615 -999 -999 -999 -999 -999
2008-04-17 07:33 51°15.816 2°53.489 -999 -999 -999 -999 -999
2008-04-17 07:34 51°15.971 2°53.359 -999 -999 -999 -999 -999
2008-04-17 07:35 51°16.153 2°53.237 -999 -999 -999 -999 -999
2008-04-17 07:36 51°16.33 2°53.093 -999 -999 -999 -999 -999
2008-04-17 07:37 51°16.497 2°52.929 -999 -999 -999 -999 -999
2008-04-17 07:38 51°16.588 2°52.78 -999 -999 -999 -999 -999
2008-04-17 07:39 51°16.666 2°52.632 -999 -999 -999 -999 -999
2008-04-17 07:40 51°16.748 2°52.478 -999 -999 -999 -999 -999
2008-04-17 07:41 51°16.829 2°52.326 -999 -999 -999 -999 -999
2008-04-17 07:42 51°16.893 2°52.208 -999 -999 -999 -999 -999
2008-04-17 07:43 51°16.951 2°52.089 -999 -999 -999 -999 -999
2008-04-17 07:44 51°17.022 2°51.993 -999 -999 -999 -999 -999
2008-04-17 07:45 51°17.106 2°51.969 -999 -999 -999 -999 -999
2008-04-17 07:46 51°17.174 2°51.96 -999 -999 -999 -999 -999
2008-04-17 07:47 51°17.217 2°51.985 -999 -999 -999 -999 -999
2008-04-17 07:48 51°17.245 2°52.024 -999 -999 -999 -999 -999
2008-04-17 07:49 51°17.287 2°52.066 -999 -999 -999 -999 -999
2008-04-17 07:50 51°17.316 2°52.122 -999 -999 -999 -999 -999
2008-04-17 07:51 51°17.323 2°52.141 -999 -999 -999 -999 -999
2008-04-17 07:52 51°17.317 2°52.134 -999 -999 -999 -999 -999
2008-04-17 07:53 51°17.308 2°52.116 -999 -999 -999 -999 -999
2008-04-17 07:54 51°17.304 2°52.097 -999 -999 -999 -999 -999
2008-04-17 07:55 51°17.317 2°52.124 -999 -999 -999 -999 -999
2008-04-17 07:56 51°17.32 2°52.148 -999 -999 -999 -999 -999
2008-04-17 07:57 51°17.32 2°52.148 -999 -999 -999 -999 -999
2008-04-17 07:58 51°17.319 2°52.138 -999 -999 -999 -999 -999
2008-04-17 07:59 51°17.316 2°52.126 -999 -999 -999 -999 -999
2008-04-17 08:00 51°17.314 2°52.115 -999 -999 -999 -999 -999
2008-04-17 08:01 51°17.316 2°52.116 -999 -999 -999 -999 -999
2008-04-17 08:02 51°17.315 2°52.117 -999 -999 -999 -999 -999
2008-04-17 08:03 51°17.313 2°52.116 -999 -999 -999 -999 -999
2008-04-17 08:04 51°17.312 2°52.116 -999 -999 -999 -999 -999
2008-04-17 08:05 51°17.311 2°52.128 -999 -999 -999 -999 -999
2008-04-17 08:06 51°17.31 2°52.15 -999 -999 -999 -999 -999
2008-04-17 08:07 51°17.315 2°52.168 -999 -999 -999 -999 -999
2008-04-17 08:08 51°17.321 2°52.17 -999 -999 -999 -999 -999
2008-04-17 08:09 51°17.324 2°52.166 -999 -999 -999 -999 -999
2008-04-17 08:10 51°17.323 2°52.158 -999 -999 -999 -999 -999
2008-04-17 08:11 51°17.322 2°52.148 -999 -999 -999 -999 -999
2008-04-17 08:12 51°17.319 2°52.136 -999 -999 -999 -999 -999
2008-04-17 08:13 51°17.317 2°52.121 -999 -999 -999 -999 -999
2008-04-17 08:14 51°17.326 2°52.136 -999 -999 -999 -999 -999
2008-04-17 08:15 51°17.319 2°52.17 -999 -999 -999 -999 -999
2008-04-17 08:16 51°17.29 2°52.195 -999 -999 -999 -999 -999
2008-04-17 08:17 51°17.229 2°52.17 -999 -999 -999 -999 -999
2008-04-17 08:18 51°17.166 2°52.108 -999 -999 -999 -999 -999
2008-04-17 08:19 51°17.116 2°52.07 -999 -999 -999 -999 -999
2008-04-17 08:20 51°17.077 2°52.036 -999 -999 -999 -999 -999
2008-04-17 08:21 51°17.045 2°51.991 -999 -999 -999 -999 -999
2008-04-17 08:22 51°17.01 2°51.933 -999 -999 -999 -999 -999
2008-04-17 08:23 51°16.971 2°51.877 -999 -999 -999 -999 -999
2008-04-17 08:24 51°16.932 2°51.818 -999 -999 -999 -999 -999
2008-04-17 08:25 51°16.892 2°51.758 -999 -999 -999 -999 -999
2008-04-17 08:26 51°16.853 2°51.697 -999 -999 -999 -999 -999
2008-04-17 08:27 51°16.814 2°51.639 -999 -999 -999 -999 -999
2008-04-17 08:28 51°16.776 2°51.582 -999 -999 -999 -999 -999
2008-04-17 08:29 51°16.738 2°51.522 -999 -999 -999 -999 -999
2008-04-17 08:30 51°16.7 2°51.463 -999 -999 -999 -999 -999
2008-04-17 08:31 51°16.663 2°51.404 -999 -999 -999 -999 -999
2008-04-17 08:32 51°16.637 2°51.342 -999 -999 -999 -999 -999
2008-04-17 08:33 51°16.632 2°51.278 -999 -999 -999 -999 -999
2008-04-17 08:34 51°16.642 2°51.222 -999 -999 -999 -999 -999
2008-04-17 08:35 51°16.651 2°51.19 -999 -999 -999 -999 -999
2008-04-17 08:36 51°16.656 2°51.173 -999 -999 -999 -999 -999
2008-04-17 08:37 51°16.658 2°51.163 -999 -999 -999 -999 -999
2008-04-17 08:38 51°16.669 2°51.152 -999 -999 -999 -999 -999
2008-04-17 08:39 51°16.697 2°51.156 -999 -999 -999 -999 -999
2008-04-17 08:40 51°16.74 2°51.172 -999 -999 -999 -999 -999
2008-04-17 08:41 51°16.793 2°51.192 -999 -999 -999 -999 -999
2008-04-17 08:42 51°16.85 2°51.212 -999 -999 -999 -999 -999
2008-04-17 08:43 51°16.908 2°51.234 -999 -999 -999 -999 -999
2008-04-17 08:44 51°16.967 2°51.258 -999 -999 -999 -999 -999
2008-04-17 08:45 51°17.025 2°51.279 -999 -999 -999 -999 -999
2008-04-17 08:46 51°17.084 2°51.297 -999 -999 -999 -999 -999
2008-04-17 08:47 51°17.142 2°51.318 -999 -999 -999 -999 -999
2008-04-17 08:48 51°17.202 2°51.339 -999 -999 -999 -999 -999
2008-04-17 08:49 51°17.261 2°51.363 -999 -999 -999 -999 -999
2008-04-17 08:50 51°17.32 2°51.383 -999 -999 -999 -999 -999
2008-04-17 08:51 51°17.378 2°51.404 -999 -999 -999 -999 -999
2008-04-17 08:52 51°17.436 2°51.422 -999 -999 -999 -999 -999
2008-04-17 08:53 51°17.494 2°51.445 -999 -999 -999 -999 -999
2008-04-17 08:54 51°17.552 2°51.468 -999 -999 -999 -999 -999
2008-04-17 08:55 51°17.609 2°51.49 -999 -999 -999 -999 -999
2008-04-17 08:56 51°17.667 2°51.512 -999 -999 -999 -999 -999
2008-04-17 08:57 51°17.726 2°51.535 -999 -999 -999 -999 -999
2008-04-17 08:58 51°17.785 2°51.557 -999 -999 -999 -999 -999
2008-04-17 08:59 51°17.843 2°51.576 -999 -999 -999 -999 -999
2008-04-17 09:00 51°17.901 2°51.595 -999 -999 -999 -999 -999
2008-04-17 09:01 51°17.959 2°51.614 -999 -999 -999 -999 -999
2008-04-17 09:02 51°18.017 2°51.633 -999 -999 -999 -999 -999
2008-04-17 09:03 51°18.075 2°51.652 -999 -999 -999 -999 -999
2008-04-17 09:04 51°18.131 2°51.671 -999 -999 -999 -999 -999
2008-04-17 09:05 51°18.188 2°51.692 -999 -999 -999 -999 -999
2008-04-17 09:06 51°18.244 2°51.712 -999 -999 -999 -999 -999
2008-04-17 09:07 51°18.3 2°51.731 -999 -999 -999 -999 -999
2008-04-17 09:08 51°18.355 2°51.746 -999 -999 -999 -999 -999
2008-04-17 09:09 51°18.41 2°51.752 -999 -999 -999 -999 -999
2008-04-17 09:10 51°18.45 2°51.752 -999 -999 -999 -999 -999
2008-04-17 09:11 51°18.479 2°51.748 -999 -999 -999 -999 -999
2008-04-17 09:12 51°18.5 2°51.743 -999 -999 -999 -999 -999
2008-04-17 09:13 51°18.517 2°51.738 -999 -999 -999 -999 -999
2008-04-17 09:14 51°18.534 2°51.735 -999 -999 -999 -999 -999
2008-04-17 09:15 51°18.549 2°51.735 -999 -999 -999 -999 -999
2008-04-17 09:16 51°18.565 2°51.738 -999 -999 -999 -999 -999
2008-04-17 09:17 51°18.579 2°51.741 -999 -999 -999 -999 -999
2008-04-17 09:18 51°18.592 2°51.743 -999 -999 -999 -999 -999
2008-04-17 09:19 51°18.605 2°51.745 -999 -999 -999 -999 -999
2008-04-17 09:20 51°18.619 2°51.746 -999 -999 -999 -999 -999
2008-04-17 09:21 51°18.634 2°51.747 -999 -999 -999 -999 -999
2008-04-17 09:22 51°18.65 2°51.749 -999 -999 -999 -999 -999
2008-04-17 09:23 51°18.665 2°51.749 -999 -999 -999 -999 -999
2008-04-17 09:24 51°18.682 2°51.75 -999 -999 -999 -999 -999
2008-04-17 09:25 51°18.699 2°51.753 -999 -999 -999 -999 -999
2008-04-17 09:26 51°18.717 2°51.757 -999 -999 -999 -999 -999
2008-04-17 09:27 51°18.735 2°51.766 -999 -999 -999 -999 -999
2008-04-17 09:28 51°18.754 2°51.775 -999 -999 -999 -999 -999
2008-04-17 09:29 51°18.774 2°51.785 -999 -999 -999 -999 -999
2008-04-17 09:30 51°18.794 2°51.793 -999 -999 -999 -999 -999
2008-04-17 09:31 51°18.815 2°51.8 -999 -999 -999 -999 -999
2008-04-17 09:32 51°18.836 2°51.807 -999 -999 -999 -999 -999
2008-04-17 09:33 51°18.854 2°51.812 -999 -999 -999 -999 -999
2008-04-17 09:34 51°18.875 2°51.815 -999 -999 -999 -999 -999
2008-04-17 09:35 51°18.897 2°51.815 -999 -999 -999 -999 -999
2008-04-17 09:36 51°18.919 2°51.815 -999 -999 -999 -999 -999
2008-04-17 09:37 51°18.943 2°51.818 -999 -999 -999 -999 -999
2008-04-17 09:38 51°18.967 2°51.822 -999 -999 -999 -999 -999
2008-04-17 09:39 51°18.987 2°51.824 -999 -999 -999 -999 -999
2008-04-17 09:40 51°19.007 2°51.828 -999 -999 -999 -999 -999
2008-04-17 09:41 51°19.028 2°51.828 -999 -999 -999 -999 -999
2008-04-17 09:42 51°19.047 2°51.83 -999 -999 -999 -999 -999
2008-04-17 09:43 51°19.066 2°51.829 -999 -999 -999 -999 -999
2008-04-17 09:44 51°19.085 2°51.828 -999 -999 -999 -999 -999
2008-04-17 09:45 51°19.105 2°51.83 -999 -999 -999 -999 -999
2008-04-17 09:46 51°19.129 2°51.834 -999 -999 -999 -999 -999
2008-04-17 09:47 51°19.154 2°51.838 -999 -999 -999 -999 -999
2008-04-17 09:48 51°19.181 2°51.844 -999 -999 -999 -999 -999
2008-04-17 09:49 51°19.207 2°51.851 -999 -999 -999 -999 -999
2008-04-17 09:50 51°19.233 2°51.858 -999 -999 -999 -999 -999
2008-04-17 09:51 51°19.258 2°51.866 -999 -999 -999 -999 -999
2008-04-17 09:52 51°19.281 2°51.87 -999 -999 -999 -999 -999
2008-04-17 09:53 51°19.303 2°51.872 -999 -999 -999 -999 -999
2008-04-17 09:54 51°19.32 2°51.872 -999 -999 -999 -999 -999
2008-04-17 09:55 51°19.341 2°51.873 -999 -999 -999 -999 -999
2008-04-17 09:56 51°19.368 2°51.876 -999 -999 -999 -999 -999
2008-04-17 09:57 51°19.398 2°51.889 -999 -999 -999 -999 -999
2008-04-17 09:58 51°19.428 2°51.913 -999 -999 -999 -999 -999
2008-04-17 09:59 51°19.457 2°51.95 -999 -999 -999 -999 -999
2008-04-17 10:00 51°19.485 2°51.994 -999 -999 -999 -999 -999
2008-04-17 10:01 51°19.514 2°52.039 -999 -999 -999 -999 -999
2008-04-17 10:02 51°19.543 2°52.082 -999 -999 -999 -999 -999
2008-04-17 10:03 51°19.572 2°52.124 -999 -999 -999 -999 -999
2008-04-17 10:04 51°19.602 2°52.166 -999 -999 -999 -999 -999
2008-04-17 10:05 51°19.634 2°52.211 -999 -999 -999 -999 -999
2008-04-17 10:06 51°19.664 2°52.257 -999 -999 -999 -999 -999
2008-04-17 10:07 51°19.696 2°52.3 -999 -999 -999 -999 -999
2008-04-17 10:08 51°19.727 2°52.343 -999 -999 -999 -999 -999
2008-04-17 10:09 51°19.755 2°52.386 -999 -999 -999 -999 -999
2008-04-17 10:10 51°19.784 2°52.428 -999 -999 -999 -999 -999
2008-04-17 10:11 51°19.815 2°52.464 -999 -999 -999 -999 -999
2008-04-17 10:12 51°19.846 2°52.508 -999 -999 -999 -999 -999
2008-04-17 10:13 51°19.872 2°52.556 -999 -999 -999 -999 -999
2008-04-17 10:14 51°19.896 2°52.603 -999 -999 -999 -999 -999
2008-04-17 10:15 51°19.924 2°52.641 -999 -999 -999 -999 -999
2008-04-17 10:16 51°19.956 2°52.677 -999 -999 -999 -999 -999
2008-04-17 10:17 51°19.987 2°52.717 -999 -999 -999 -999 -999
2008-04-17 10:18 51°20.015 2°52.76 -999 -999 -999 -999 -999
2008-04-17 10:19 51°20.041 2°52.803 -999 -999 -999 -999 -999
2008-04-17 10:20 51°20.068 2°52.851 -999 -999 -999 -999 -999
2008-04-17 10:21 51°20.097 2°52.899 -999 -999 -999 -999 -999
2008-04-17 10:22 51°20.127 2°52.95 -999 -999 -999 -999 -999
2008-04-17 10:23 51°20.158 2°52.992 -999 -999 -999 -999 -999
2008-04-17 10:24 51°20.185 2°53.03 -999 -999 -999 -999 -999
2008-04-17 10:25 51°20.196 2°53.072 -999 -999 -999 -999 -999
2008-04-17 10:26 51°20.183 2°53.113 -999 -999 -999 -999 -999
2008-04-17 10:27 51°20.139 2°53.102 -999 -999 -999 -999 -999
2008-04-17 10:28 51°20.071 2°53.052 -999 -999 -999 -999 -999
2008-04-17 10:29 51°19.997 2°52.982 -999 -999 -999 -999 -999
2008-04-17 10:30 51°19.928 2°52.894 -999 -999 -999 -999 -999
2008-04-17 10:31 51°19.858 2°52.809 -999 -999 -999 -999 -999
2008-04-17 10:32 51°19.788 2°52.723 -999 -999 -999 -999 -999
2008-04-17 10:33 51°19.719 2°52.636 -999 -999 -999 -999 -999
2008-04-17 10:34 51°19.648 2°52.552 -999 -999 -999 -999 -999
2008-04-17 10:35 51°19.579 2°52.466 -999 -999 -999 -999 -999
2008-04-17 10:36 51°19.509 2°52.38 -999 -999 -999 -999 -999
2008-04-17 10:37 51°19.439 2°52.296 -999 -999 -999 -999 -999
2008-04-17 10:38 51°19.37 2°52.21 -999 -999 -999 -999 -999
2008-04-17 10:39 51°19.32 2°52.156 -999 -999 -999 -999 -999
2008-04-17 10:40 51°19.292 2°52.128 -999 -999 -999 -999 -999
2008-04-17 10:41 51°19.285 2°52.091 -999 -999 -999 -999 -999
2008-04-17 10:42 51°19.29 2°52.074 -999 -999 -999 -999 -999
2008-04-17 10:43 51°19.303 2°52.068 -999 -999 -999 -999 -999
2008-04-17 10:44 51°19.317 2°52.068 -999 -999 -999 -999 -999
2008-04-17 10:45 51°19.327 2°52.074 -999 -999 -999 -999 -999
2008-04-17 10:46 51°19.332 2°52.08 -999 -999 -999 -999 -999
2008-04-17 10:47 51°19.335 2°52.091 -999 -999 -999 -999 -999
2008-04-17 10:48 51°19.338 2°52.104 -999 -999 -999 -999 -999
2008-04-17 10:49 51°19.342 2°52.117 -999 -999 -999 -999 -999
2008-04-17 10:50 51°19.373 2°52.106 -999 -999 -999 -999 -999
2008-04-17 10:51 51°19.438 2°52.167 -999 -999 -999 -999 -999
2008-04-17 10:52 51°19.416 2°52.269 -999 -999 -999 -999 -999
2008-04-17 10:53 51°19.359 2°52.218 -999 -999 -999 -999 -999
2008-04-17 10:54 51°19.297 2°52.134 -999 -999 -999 -999 -999
2008-04-17 10:55 51°19.267 2°52.102 -999 -999 -999 -999 -999
2008-04-17 10:56 51°19.269 2°52.089 -999 -999 -999 -999 -999
2008-04-17 10:57 51°19.275 2°52.074 -999 -999 -999 -999 -999
2008-04-17 10:58 51°19.285 2°52.06 -999 -999 -999 -999 -999
2008-04-17 10:59 51°19.298 2°52.052 -999 -999 -999 -999 -999
2008-04-17 11:00 51°19.311 2°52.05 -999 -999 -999 -999 -999
2008-04-17 11:01 51°19.326 2°52.051 -999 -999 -999 -999 -999
2008-04-17 11:02 51°19.338 2°52.055 -999 -999 -999 -999 -999
2008-04-17 11:03 51°19.347 2°52.059 -999 -999 -999 -999 -999
2008-04-17 11:04 51°19.354 2°52.066 -999 -999 -999 -999 -999
2008-04-17 11:05 51°19.361 2°52.071 -999 -999 -999 -999 -999
2008-04-17 11:06 51°19.376 2°52.029 -999 -999 -999 -999 -999
2008-04-17 11:07 51°19.342 2°51.962 -999 -999 -999 -999 -999
2008-04-17 11:08 51°19.308 2°51.894 -999 -999 -999 -999 -999
2008-04-17 11:09 51°19.276 2°51.839 -999 -999 -999 -999 -999
2008-04-17 11:10 51°19.247 2°51.786 -999 -999 -999 -999 -999
2008-04-17 11:11 51°19.22 2°51.733 -999 -999 -999 -999 -999
2008-04-17 11:12 51°19.191 2°51.674 -999 -999 -999 -999 -999
2008-04-17 11:13 51°19.16 2°51.614 -999 -999 -999 -999 -999
2008-04-17 11:14 51°19.13 2°51.552 -999 -999 -999 -999 -999
2008-04-17 11:15 51°19.1 2°51.489 -999 -999 -999 -999 -999
2008-04-17 11:16 51°19.069 2°51.426 -999 -999 -999 -999 -999
2008-04-17 11:17 51°19.037 2°51.364 -999 -999 -999 -999 -999
2008-04-17 11:18 51°19.005 2°51.302 -999 -999 -999 -999 -999
2008-04-17 11:19 51°18.975 2°51.24 -999 -999 -999 -999 -999
2008-04-17 11:20 51°18.945 2°51.178 -999 -999 -999 -999 -999
2008-04-17 11:21 51°18.913 2°51.115 -999 -999 -999 -999 -999
2008-04-17 11:22 51°18.883 2°51.054 -999 -999 -999 -999 -999
2008-04-17 11:23 51°18.866 2°50.984 -999 -999 -999 -999 -999
2008-04-17 11:24 51°18.892 2°50.916 -999 -999 -999 -999 -999
2008-04-17 11:25 51°18.942 2°50.873 -999 -999 -999 -999 -999
2008-04-17 11:26 51°18.982 2°50.856 -999 -999 -999 -999 -999
2008-04-17 11:27 51°19.007 2°50.851 -999 -999 -999 -999 -999
2008-04-17 11:28 51°19.024 2°50.851 -999 -999 -999 -999 -999
2008-04-17 11:29 51°19.034 2°50.85 -999 -999 -999 -999 -999
2008-04-17 11:30 51°19.04 2°50.853 -999 -999 -999 -999 -999
2008-04-17 11:31 51°19.045 2°50.856 -999 -999 -999 -999 -999
2008-04-17 11:32 51°19.05 2°50.861 -999 -999 -999 -999 -999
2008-04-17 11:33 51°19.062 2°50.838 -999 -999 -999 -999 -999
2008-04-17 11:34 51°19.046 2°50.785 -999 -999 -999 -999 -999
2008-04-17 11:35 51°18.984 2°50.796 -999 -999 -999 -999 -999
2008-04-17 11:36 51°18.898 2°50.815 -999 -999 -999 -999 -999
2008-04-17 11:37 51°18.777 2°50.84 -999 -999 -999 -999 -999
2008-04-17 11:38 51°18.641 2°50.9 -999 -999 -999 -999 -999
2008-04-17 11:39 51°18.492 2°50.963 -999 -999 -999 -999 -999
2008-04-17 11:40 51°18.343 2°51.022 -999 -999 -999 -999 -999
2008-04-17 11:41 51°18.195 2°51.084 -999 -999 -999 -999 -999
2008-04-17 11:42 51°18.045 2°51.144 -999 -999 -999 -999 -999
2008-04-17 11:43 51°17.894 2°51.198 -999 -999 -999 -999 -999
2008-04-17 11:44 51°17.746 2°51.275 -999 -999 -999 -999 -999
2008-04-17 11:45 51°17.6 2°51.362 -999 -999 -999 -999 -999
2008-04-17 11:46 51°17.461 2°51.47 -999 -999 -999 -999 -999
2008-04-17 11:47 51°17.322 2°51.58 -999 -999 -999 -999 -999
2008-04-17 11:48 51°17.181 2°51.686 -999 -999 -999 -999 -999
2008-04-17 11:49 51°17.039 2°51.791 -999 -999 -999 -999 -999
2008-04-17 11:50 51°16.902 2°51.912 -999 -999 -999 -999 -999
2008-04-17 11:51 51°16.775 2°52.06 -999 -999 -999 -999 -999
2008-04-17 11:52 51°16.647 2°52.21 -999 -999 -999 -999 -999
2008-04-17 11:53 51°16.518 2°52.363 -999 -999 -999 -999 -999
2008-04-17 11:54 51°16.392 2°52.524 -999 -999 -999 -999 -999
2008-04-17 11:55 51°16.266 2°52.686 -999 -999 -999 -999 -999
2008-04-17 11:56 51°16.142 2°52.845 -999 -999 -999 -999 -999
2008-04-17 11:57 51°16.016 2°53.004 -999 -999 -999 -999 -999
2008-04-17 11:58 51°15.887 2°53.168 -999 -999 -999 -999 -999
2008-04-17 11:59 51°15.734 2°53.356 -999 -999 -999 -999 -999
2008-04-17 12:00 51°15.571 2°53.551 -999 -999 -999 -999 -999
2008-04-17 12:01 51°15.408 2°53.742 -999 -999 -999 -999 -999
2008-04-17 12:02 51°15.242 2°53.926 -999 -999 -999 -999 -999
2008-04-17 12:03 51°15.078 2°54.116 -999 -999 -999 -999 -999
2008-04-17 12:04 51°14.912 2°54.309 -999 -999 -999 -999 -999
2008-04-17 12:05 51°14.75 2°54.509 -999 -999 -999 -999 -999
2008-04-17 12:06 51°14.593 2°54.696 -999 -999 -999 -999 -999
2008-04-17 12:07 51°14.46 2°54.875 -999 -999 -999 -999 -999
2008-04-17 12:08 51°14.359 2°55.047 -999 -999 -999 -999 -999
2008-04-17 12:09 51°14.268 2°55.223 -999 -999 -999 -999 -999
2008-04-17 12:10 51°14.153 2°55.38 -999 -999 -999 -999 -999
2008-04-17 12:11 51°14.034 2°55.479 -999 -999 -999 -999 -999
2008-04-17 12:12 51°13.937 2°55.549 -999 -999 -999 -999 -999
2008-04-17 12:13 51°13.845 2°55.614 -999 -999 -999 -999 -999
2008-04-17 12:14 51°13.769 2°55.698 -999 -999 -999 -999 -999
2008-04-17 12:15 51°13.71 2°55.8 -999 -999 -999 -999 -999
2008-04-17 12:16 51°13.673 2°55.896 -999 -999 -999 -999 -999
2008-04-17 12:17 51°13.664 2°55.95 -999 -999 -999 -999 -999